Enter the Airport ICAO Code

Search by Airport or City

Current Weather

LERT | US Naval Station Rota[1]

Rota, Andalusia, Spain

Last Update 7 Minutes Ago

Clear Sky

Temperature of 13 ºC

Light Winds from NorthEast

Temperature

13 ºC

Dew Point Temperature

10 ºC

Relative Humidity

82.07 %

Wind Direction

NorthEast (050º, Ranging from 350º to 090º)

Wind Velocity

6 km/h (03 kt)

Gusts

None

Visibility

No Significant Reductions

Sea Level Pressure

1018 hPa (Hectopascals)

Layers of Clouds

None

METAR LERT 090930Z 05003KT 350V090 CAVOK 13/10 Q1018 NOSIG

Weather Forecast

LERT | US Naval Station Rota[1]

Rota, Andalusia, Spain

Forecast valid for the next 23 Hours

From now on it is expected:

Sky with Few Clouds

Light Winds from North

In 4 hours it is expected the begining of 4 hours with intermittent periods of:

Moderate Winds from West

Maximum Temperature

17 ºC in 4 Hours

Minimum Temperature

09 ºC in 21 Hours

TAF LERT 090800Z 0909/1009 01004KT 9999 FEW035 TX17/0914Z TN09/1007Z TEMPO 0914/0918 29010KT